Aérodrome :
LOGIN :

S'inscrire | Disclaimer

   EN    FR    IT 

 










Légende :    VFR   VFR Marginal   IFR   IFR Intensif   IFR Très Intensif
Visi : 
Plafond : 
>= 8 km
>= 3000ft
5 à 8 km
1000 à 3000 ft
1500m à 5 km
500 à 1000 ft
800 à 1500m
200 à 500 ft
< 800m
< 200 ft
Symboles :   Orages  Brouillard  Fortes neiges  Fortes précipitations  Vent > 20 kt
SIGMETs :   Divers  Orages  Givrage  Turbulence  Onde Orograph.  Cendres Volcan.






- Altitude de l'aérodrome : 26 ft
- Code IATA : GLA


EGPF - Glasgow

DERNIER METAR :
  • 171620Z AUTO 24009KT 9999 NCD 04/02 Q1007

METARs EXPIRÉS :
  • 171550Z 24008KT 9999 SCT032 05/03 Q1007
  • 171520Z 24007KT 9999 SCT034 05/03 Q1006
  • 171450Z 25008KT 9999 VCSH SCT040TCU 06/03 Q1006
  • 171420Z AUTO 25009KT 9999 -RA SCT032/// BKN041/// BKN049/// //////TCU 06/03 Q1006
  • 171350Z AUTO 24015KT 9999 -RA BKN016/// BKN022/// OVC038/// //////TCU 06/04 Q1005

TAF AMD TAF EGPF
Valide du 17 à 13h jusqu'au 18 à 12h UTC


171315Z 1713/1812 23009KT 9999 SCT020
TEMPO 1713/1809 6000 SHRA BKN012
PROB40
TEMPO 1713/1718 24015G25KT
ATIS : +44 141 887 7449



MET'MAP, la Météo Aéronautique d'un coup d'oeil ! - Copyright ORBIFLY Décembre 2007 - Disclaimer

ORBIFLY MET'MAP TEAM :

Programmation & Développement : Alexandra Zaïnal
Sur une idée originale de : Baudouin d'Aumeries
Assistance à la programmation : Marc-Olivier Méhu
Soutien technique & logistique : Manuel Goepfert

Contact : metmap@orbifly.com




SOURCES & CREDITS :

   NOAA